Webcam Flughafen St.Gallen-Altenrhein

Live-Bilder und Zeitraffer LSZR / ACH.

 

Live aus Altenrhein
LIVE
LSZR 280520Z 19004KT 130V290 9999 BKN035 07/05 Q1004 NOSIG RMK A
Zeitraffer heute
2020-01-28 00:13:59
LSZR 272250Z AUTO 11007KT 9999 FEW060 BKN070 06/03 Q1008